Time;durP1;ratioP1;P1;durP2;ratioP2;P2;SDS_P1;SDS_P2;PMS_P1;PMS_P2;Temp;Humidity;BMP_temperature;BMP_pressure;BME280_temperature;BME280_humidity;BME280_pressure;Samples;Min_cycle;Max_cycle;Signal;HPM_P1;HPM_P2
2024/01/04 00:01:42;;;;;;;10.85;4.25;;;10.40;99.90;;;;;;5040171;28;20553;-72
2024/01/04 00:04:08;;;;;;;15.77;4.65;;;10.40;99.90;;;;;;5036103;28;20029;-72
2024/01/04 00:06:33;;;;;;;13.48;4.78;;;10.50;99.90;;;;;;5039394;28;20036;-72
2024/01/04 00:08:59;;;;;;;13.13;3.97;;;10.30;99.90;;;;;;5038504;28;20389;-72
2024/01/04 00:11:25;;;;;;;7.90;3.83;;;10.50;99.90;;;;;;5033618;28;20030;-72
2024/01/04 00:13:51;;;;;;;10.43;4.03;;;10.40;99.90;;;;;;5035978;28;20037;-72
2024/01/04 00:16:18;;;;;;;9.95;4.07;;;10.40;99.90;;;;;;5033534;28;20848;-72
2024/01/04 00:18:44;;;;;;;8.45;4.40;;;10.50;99.90;;;;;;5036069;28;20032;-72
2024/01/04 00:21:13;;;;;;;8.18;3.85;;;10.40;99.90;;;;;;5030620;28;20022;-72
2024/01/04 00:23:38;;;;;;;12.82;4.57;;;10.50;99.90;;;;;;5038015;28;20390;-72
2024/01/04 00:26:04;;;;;;;12.45;3.80;;;10.50;99.90;;;;;;5034711;28;20029;-72
2024/01/04 00:28:30;;;;;;;11.45;4.38;;;10.50;99.90;;;;;;5033608;28;20013;-72
2024/01/04 00:30:56;;;;;;;14.32;5.47;;;10.40;99.90;;;;;;5035272;28;20628;-71
2024/01/04 00:33:21;;;;;;;13.43;5.40;;;10.40;99.90;;;;;;5038467;28;20086;-72
2024/01/04 00:35:47;;;;;;;13.13;5.35;;;10.50;99.90;;;;;;5033584;28;20025;-72
2024/01/04 00:38:13;;;;;;;11.77;5.07;;;10.50;99.90;;;;;;5034620;28;20040;-72
2024/01/04 00:40:39;;;;;;;12.82;4.95;;;10.40;99.90;;;;;;5035639;28;20025;-72
2024/01/04 00:43:05;;;;;;;10.55;5.10;;;10.50;99.90;;;;;;5034404;28;20478;-71
2024/01/04 00:45:31;;;;;;;16.33;5.57;;;10.40;99.90;;;;;;5033388;28;20021;-71
2024/01/04 00:47:56;;;;;;;13.85;4.88;;;10.30;99.90;;;;;;5033408;28;20513;-72
2024/01/04 00:50:22;;;;;;;8.95;4.38;;;10.30;99.90;;;;;;5033942;28;20543;-72
2024/01/04 00:52:48;;;;;;;14.73;4.22;;;10.30;99.90;;;;;;5032949;28;20435;-72
2024/01/04 00:55:14;;;;;;;12.57;4.45;;;10.40;99.90;;;;;;5036286;28;20021;-71
2024/01/04 00:57:39;;;;;;;9.73;4.10;;;10.40;99.90;;;;;;5039214;28;20040;-71
2024/01/04 01:00:05;;;;;;;12.27;4.22;;;10.40;99.90;;;;;;5036434;28;20079;-72
2024/01/04 01:02:31;;;;;;;11.65;4.88;;;10.30;99.90;;;;;;5040282;28;20056;-72
2024/01/04 01:04:57;;;;;;;8.65;4.18;;;10.40;99.90;;;;;;5037446;28;20080;-72
2024/01/04 01:07:22;;;;;;;9.15;4.32;;;10.40;99.90;;;;;;5039652;28;20486;-72
2024/01/04 01:09:48;;;;;;;12.73;4.40;;;10.40;99.90;;;;;;5043070;28;20029;-72
2024/01/04 01:12:14;;;;;;;12.18;4.32;;;10.40;99.90;;;;;;5042242;28;20520;-71
2024/01/04 01:14:40;;;;;;;12.23;4.00;;;10.50;99.90;;;;;;5039303;28;20032;-72
2024/01/04 01:17:06;;;;;;;10.90;4.25;;;10.50;99.90;;;;;;5034886;28;20129;-72
2024/01/04 01:19:32;;;;;;;11.43;4.00;;;10.50;99.90;;;;;;5037077;28;20092;-72
2024/01/04 01:21:58;;;;;;;14.02;3.60;;;10.50;99.90;;;;;;5034619;28;20482;-72
2024/01/04 01:24:23;;;;;;;11.80;3.83;;;10.40;99.90;;;;;;5035946;28;20485;-72
2024/01/04 01:26:49;;;;;;;16.00;4.03;;;10.50;99.90;;;;;;5040338;28;20028;-72
2024/01/04 01:29:15;;;;;;;17.63;4.97;;;10.50;99.90;;;;;;5040157;28;21404;-72
2024/01/04 01:31:41;;;;;;;7.60;3.33;;;10.50;99.90;;;;;;5037680;28;20390;-72
2024/01/04 01:34:08;;;;;;;13.40;4.45;;;10.60;99.90;;;;;;5038466;28;20013;-71
2024/01/04 01:36:34;;;;;;;13.20;4.25;;;10.60;99.90;;;;;;5034445;28;20025;-72
2024/01/04 01:38:59;;;;;;;9.65;3.80;;;10.70;99.90;;;;;;5037642;28;20083;-72
2024/01/04 01:41:25;;;;;;;13.15;3.92;;;10.60;99.90;;;;;;5038175;28;20025;-72
2024/01/04 01:43:51;;;;;;;13.70;4.22;;;10.60;99.90;;;;;;5035065;28;20498;-71
2024/01/04 01:46:17;;;;;;;12.48;3.75;;;10.60;99.90;;;;;;5035065;28;20112;-71
2024/01/04 01:48:43;;;;;;;15.75;4.32;;;10.60;99.90;;;;;;5037206;28;20028;-71
2024/01/04 01:51:10;;;;;;;13.25;4.38;;;10.60;99.90;;;;;;5039067;28;20544;-71
2024/01/04 01:53:37;;;;;;;11.02;4.10;;;10.60;99.90;;;;;;5036314;28;20101;-71
2024/01/04 01:56:04;;;;;;;16.40;4.38;;;10.70;99.90;;;;;;5039600;28;20100;-71
2024/01/04 01:58:30;;;;;;;12.25;3.78;;;10.60;99.90;;;;;;5041004;28;20027;-71
2024/01/04 02:00:56;;;;;;;12.23;4.25;;;10.60;99.90;;;;;;5039606;28;20021;-72
2024/01/04 02:03:22;;;;;;;9.63;3.83;;;10.50;99.90;;;;;;5034301;28;20033;-72
2024/01/04 02:05:48;;;;;;;13.73;4.55;;;10.50;99.90;;;;;;5041125;28;20028;-72
2024/01/04 02:08:13;;;;;;;12.90;4.70;;;10.50;99.90;;;;;;5037275;28;20027;-72
2024/01/04 02:10:39;;;;;;;13.73;4.40;;;10.50;99.90;;;;;;5039102;28;20056;-71
2024/01/04 02:13:05;;;;;;;13.48;4.75;;;10.40;99.90;;;;;;5037961;28;20033;-72
2024/01/04 02:15:31;;;;;;;12.57;4.07;;;10.50;99.90;;;;;;5037384;28;20013;-72
2024/01/04 02:17:57;;;;;;;15.00;4.47;;;10.50;99.90;;;;;;5035029;28;20851;-72
2024/01/04 02:20:23;;;;;;;12.60;4.07;;;10.60;99.90;;;;;;5040111;28;20029;-71
2024/01/04 02:22:51;;;;;;;14.52;5.03;;;10.60;99.90;;;;;;5039617;28;20466;-72
2024/01/04 02:25:17;;;;;;;7.90;4.22;;;10.50;99.90;;;;;;5033145;28;20048;-72
2024/01/04 02:27:43;;;;;;;10.43;4.40;;;10.50;99.90;;;;;;5037759;28;20075;-72
2024/01/04 02:30:11;;;;;;;7.03;4.70;;;10.60;99.90;;;;;;5039324;28;20025;-72
2024/01/04 02:32:37;;;;;;;15.30;4.97;;;10.50;99.90;;;;;;5034270;28;20033;-72
2024/01/04 02:35:04;;;;;;;12.35;4.10;;;10.50;99.90;;;;;;5038147;28;20032;-71
2024/01/04 02:37:29;;;;;;;13.43;4.97;;;10.50;99.90;;;;;;5036745;28;20025;-72
2024/01/04 02:39:55;;;;;;;14.50;4.97;;;10.50;99.90;;;;;;5036962;28;20028;-72
2024/01/04 02:42:21;;;;;;;15.25;4.80;;;10.50;99.90;;;;;;5038108;28;20898;-71
2024/01/04 02:44:46;;;;;;;10.60;4.38;;;10.50;99.90;;;;;;5036763;28;20033;-71
2024/01/04 02:47:12;;;;;;;9.15;4.80;;;10.50;99.90;;;;;;5033339;28;20028;-71
2024/01/04 02:49:38;;;;;;;8.77;4.47;;;10.50;99.90;;;;;;5038642;28;20025;-72
2024/01/04 02:52:05;;;;;;;8.80;5.00;;;10.50;99.90;;;;;;5039706;28;20124;-72
2024/01/04 02:54:30;;;;;;;15.55;5.80;;;10.50;99.90;;;;;;5038572;28;20022;-72
2024/01/04 02:56:56;;;;;;;14.05;6.00;;;10.50;99.90;;;;;;5035060;28;20614;-72
2024/01/04 02:59:22;;;;;;;12.60;5.72;;;10.50;99.90;;;;;;5038098;28;20024;-72
2024/01/04 03:01:48;;;;;;;16.23;6.53;;;10.50;99.90;;;;;;5034356;28;20103;-71
2024/01/04 03:04:15;;;;;;;15.32;6.25;;;10.50;99.90;;;;;;5037790;28;20021;-72
2024/01/04 03:06:41;;;;;;;13.35;6.20;;;10.50;99.90;;;;;;5042528;28;20103;-72
2024/01/04 03:09:08;;;;;;;15.57;6.63;;;10.50;99.90;;;;;;5051624;28;20090;-72
2024/01/04 03:11:33;;;;;;;9.95;6.18;;;10.50;99.90;;;;;;5045452;28;20125;-72
2024/01/04 03:13:59;;;;;;;12.65;5.90;;;10.50;99.90;;;;;;5040672;28;20104;-72
2024/01/04 03:16:25;;;;;;;10.90;5.80;;;10.60;99.90;;;;;;5044125;28;20025;-72
2024/01/04 03:18:50;;;;;;;13.98;6.10;;;10.50;99.90;;;;;;5041542;28;20024;-72
2024/01/04 03:21:17;;;;;;;14.05;6.05;;;10.50;99.90;;;;;;5051516;28;20083;-72
2024/01/04 03:23:43;;;;;;;17.15;6.32;;;10.50;99.90;;;;;;5045629;28;20027;-72
2024/01/04 03:26:08;;;;;;;18.90;6.80;;;10.60;99.90;;;;;;5040403;28;20045;-72
2024/01/04 03:28:34;;;;;;;16.85;6.97;;;10.60;99.90;;;;;;5040877;28;20475;-72
2024/01/04 03:31:01;;;;;;;21.55;6.15;;;10.60;99.90;;;;;;5042470;28;20037;-72
2024/01/04 03:33:27;;;;;;;14.23;6.72;;;10.60;99.90;;;;;;5039537;28;20031;-72
2024/01/04 03:35:53;;;;;;;19.48;7.15;;;10.80;99.90;;;;;;5039282;28;20108;-72
2024/01/04 03:38:19;;;;;;;22.85;8.38;;;10.80;99.90;;;;;;5041394;28;20032;-71
2024/01/04 03:40:45;;;;;;;20.92;8.38;;;10.70;99.90;;;;;;5049385;28;20031;-72
2024/01/04 03:43:10;;;;;;;17.38;7.57;;;10.70;99.90;;;;;;5040859;28;20034;-72
2024/01/04 03:45:36;;;;;;;19.73;9.00;;;10.70;99.90;;;;;;5045021;28;20704;-72
2024/01/04 03:48:02;;;;;;;21.25;8.57;;;10.70;99.90;;;;;;5043325;28;20159;-72
2024/01/04 03:50:27;;;;;;;24.33;8.98;;;10.60;99.90;;;;;;5039008;28;20394;-72
2024/01/04 03:52:53;;;;;;;26.63;9.60;;;10.60;99.90;;;;;;5045998;28;20034;-72
2024/01/04 03:55:19;;;;;;;25.75;8.30;;;10.60;99.90;;;;;;5049894;28;20096;-72
2024/01/04 03:57:46;;;;;;;22.98;8.63;;;10.70;99.90;;;;;;5037654;28;20108;-72
2024/01/04 04:00:12;;;;;;;27.70;9.15;;;10.80;99.90;;;;;;5042854;28;20032;-73
2024/01/04 04:02:38;;;;;;;25.48;9.75;;;10.70;99.90;;;;;;5044194;28;20061;-72
2024/01/04 04:05:05;;;;;;;20.40;9.93;;;10.60;99.90;;;;;;5044352;28;20021;-72
2024/01/04 04:07:31;;;;;;;17.65;7.88;;;10.50;99.90;;;;;;5039781;28;20477;-71
2024/01/04 04:09:57;;;;;;;16.33;8.35;;;10.50;99.90;;;;;;5041977;28;20022;-71
2024/01/04 04:12:23;;;;;;;11.93;6.72;;;10.40;99.90;;;;;;5043228;28;20037;-71
2024/01/04 04:14:49;;;;;;;15.88;6.45;;;10.40;99.90;;;;;;5042793;28;20072;-71
2024/01/04 04:17:20;;;;;;;15.05;5.78;;;10.40;99.90;;;;;;5043412;28;20025;-71
2024/01/04 04:19:46;;;;;;;11.40;5.93;;;10.30;99.90;;;;;;5036881;28;20035;-71
2024/01/04 04:22:12;;;;;;;9.88;5.18;;;10.30;99.90;;;;;;5040912;28;20034;-72
2024/01/04 04:24:37;;;;;;;11.13;4.30;;;10.40;99.90;;;;;;5041981;28;20387;-71
2024/01/04 04:27:03;;;;;;;8.25;4.18;;;10.30;99.90;;;;;;5043063;28;20048;-72
2024/01/04 04:29:29;;;;;;;10.40;4.45;;;10.40;99.90;;;;;;5039266;28;20025;-72
2024/01/04 04:31:57;;;;;;;7.72;3.33;;;10.30;99.90;;;;;;5042294;28;20045;-72
2024/01/04 04:34:23;;;;;;;7.70;4.22;;;10.40;99.90;;;;;;5047627;28;20393;-72
2024/01/04 04:36:49;;;;;;;6.50;3.60;;;10.40;99.90;;;;;;5045542;28;20030;-72
2024/01/04 04:39:15;;;;;;;3.80;3.17;;;10.40;99.90;;;;;;5046633;28;20036;-72
2024/01/04 04:41:41;;;;;;;7.53;3.05;;;10.30;99.90;;;;;;5043393;28;20025;-72
2024/01/04 04:44:06;;;;;;;8.07;3.45;;;10.30;99.90;;;;;;5045245;28;20056;-72
2024/01/04 04:46:32;;;;;;;4.28;3.03;;;10.30;99.90;;;;;;5040428;28;20063;-71
2024/01/04 04:48:58;;;;;;;10.13;3.90;;;10.20;99.90;;;;;;5049192;28;20486;-71
2024/01/04 04:51:25;;;;;;;5.57;2.90;;;10.20;99.90;;;;;;5044642;28;20041;-71
2024/01/04 04:53:51;;;;;;;6.10;3.05;;;10.10;99.90;;;;;;5044067;28;20025;-71
2024/01/04 04:56:18;;;;;;;10.75;4.15;;;10.00;99.90;;;;;;5055453;28;20033;-71
2024/01/04 04:58:43;;;;;;;7.88;4.13;;;10.10;99.90;;;;;;5040259;28;20030;-72
2024/01/04 05:01:09;;;;;;;7.78;4.05;;;10.10;99.90;;;;;;5044439;28;20037;-72
2024/01/04 05:03:38;;;;;;;8.57;4.18;;;10.20;99.90;;;;;;5052116;28;20018;-71
2024/01/04 05:06:06;;;;;;;8.20;4.40;;;10.10;99.90;;;;;;5043541;28;20516;-72
2024/01/04 05:08:32;;;;;;;4.43;3.10;;;10.10;99.90;;;;;;5046704;28;20047;-72
2024/01/04 05:10:58;;;;;;;7.47;3.38;;;10.10;99.90;;;;;;5046529;28;20044;-72
2024/01/04 05:13:23;;;;;;;6.70;2.50;;;10.10;99.90;;;;;;5045215;28;20026;-72
2024/01/04 05:15:49;;;;;;;6.03;2.20;;;10.10;99.90;;;;;;5048428;28;20659;-72
2024/01/04 05:18:15;;;;;;;3.25;2.20;;;10.10;99.90;;;;;;5029562;28;20408;-72
2024/01/04 05:20:40;;;;;;;3.90;1.77;;;10.00;99.90;;;;;;5007259;28;20065;-72
2024/01/04 05:23:07;;;;;;;3.25;1.52;;;10.00;99.90;;;;;;5039764;28;20411;-72
2024/01/04 05:25:33;;;;;;;3.55;1.80;;;10.10;99.90;;;;;;5039049;28;20021;-72
2024/01/04 05:28:00;;;;;;;4.00;2.08;;;10.00;99.90;;;;;;5039090;28;20100;-72
2024/01/04 05:30:31;;;;;;;2.80;1.80;;;10.10;99.90;;;;;;5036552;28;20478;-72
2024/01/04 05:32:57;;;;;;;2.53;1.77;;;10.00;99.90;;;;;;5038782;28;20057;-72
2024/01/04 05:35:23;;;;;;;3.88;1.98;;;10.10;99.90;;;;;;5037123;28;20060;-72
2024/01/04 05:37:48;;;;;;;3.88;1.80;;;10.10;99.90;;;;;;5037236;28;20539;-72
2024/01/04 05:40:15;;;;;;;5.18;2.53;;;10.00;99.90;;;;;;5037918;28;20053;-72
2024/01/04 05:42:42;;;;;;;5.10;2.40;;;10.00;99.90;;;;;;5034574;28;20049;-72
2024/01/04 05:45:08;;;;;;;6.93;2.50;;;10.00;99.90;;;;;;5036837;28;20037;-72
2024/01/04 05:47:35;;;;;;;6.43;3.08;;;10.00;99.90;;;;;;5039971;28;20018;-72
2024/01/04 05:50:01;;;;;;;6.70;2.70;;;10.10;99.90;;;;;;5042696;28;20020;-72
2024/01/04 05:52:26;;;;;;;5.85;3.40;;;10.10;99.90;;;;;;5041566;28;20406;-72
2024/01/04 05:54:52;;;;;;;4.97;3.10;;;10.20;99.90;;;;;;5034443;28;20106;-72
2024/01/04 05:57:18;;;;;;;5.97;3.63;;;10.20;99.90;;;;;;5034298;28;20029;-72
2024/01/04 05:59:44;;;;;;;13.43;4.72;;;10.20;99.90;;;;;;5043966;28;20462;-72
2024/01/04 06:02:09;;;;;;;5.30;4.20;;;10.10;99.90;;;;;;5037542;28;20109;-73
2024/01/04 06:04:35;;;;;;;8.98;5.28;;;10.20;99.90;;;;;;5033543;28;20025;-74
2024/01/04 06:07:01;;;;;;;9.45;5.63;;;10.10;99.90;;;;;;5036734;28;20119;-73
2024/01/04 06:09:26;;;;;;;11.40;6.28;;;10.10;99.90;;;;;;5031501;28;20125;-73
2024/01/04 06:11:52;;;;;;;7.97;5.68;;;10.10;99.90;;;;;;5038843;28;20116;-73
2024/01/04 06:14:19;;;;;;;9.90;5.78;;;10.00;99.90;;;;;;5036290;28;20132;-73
2024/01/04 06:16:45;;;;;;;9.82;6.65;;;10.00;99.90;;;;;;5037819;28;20034;-72
2024/01/04 06:19:10;;;;;;;8.18;6.85;;;10.10;99.90;;;;;;5042984;28;20021;-73
2024/01/04 06:21:37;;;;;;;7.90;6.80;;;10.10;99.90;;;;;;5042649;28;20033;-73
2024/01/04 06:24:03;;;;;;;12.18;6.15;;;10.10;99.90;;;;;;5039482;28;20512;-73
2024/01/04 06:26:29;;;;;;;7.57;5.38;;;10.20;99.90;;;;;;5041752;28;20025;-73
2024/01/04 06:28:55;;;;;;;7.55;4.60;;;10.10;99.90;;;;;;5037256;28;20032;-73
2024/01/04 06:31:20;;;;;;;5.85;4.80;;;10.10;99.90;;;;;;5039082;28;20473;-73
2024/01/04 06:33:46;;;;;;;7.45;4.25;;;10.10;99.90;;;;;;5035659;28;20054;-73
2024/01/04 06:36:12;;;;;;;6.45;4.50;;;10.10;99.90;;;;;;5034808;28;20025;-73
2024/01/04 06:38:38;;;;;;;6.20;5.10;;;9.90;99.90;;;;;;5044430;28;20476;-73
2024/01/04 06:41:04;;;;;;;7.75;4.95;;;10.00;99.90;;;;;;5051690;28;20028;-74
2024/01/04 06:43:30;;;;;;;7.50;5.20;;;10.10;99.90;;;;;;5041874;28;20429;-74
2024/01/04 06:45:59;;;;;;;6.45;5.10;;;10.20;99.90;;;;;;5046361;28;20111;-73
2024/01/04 06:48:25;;;;;;;10.35;5.45;;;10.20;99.90;;;;;;5043877;28;20117;-73
2024/01/04 06:50:51;;;;;;;7.93;5.40;;;10.20;99.90;;;;;;5039824;28;20107;-74
2024/01/04 06:53:17;;;;;;;7.70;4.82;;;10.20;99.90;;;;;;5042730;28;20490;-73
2024/01/04 06:55:46;;;;;;;7.15;5.30;;;10.20;99.90;;;;;;5043810;28;20021;-73
2024/01/04 06:58:11;;;;;;;7.25;4.80;;;10.10;99.90;;;;;;5038922;28;20402;-73
2024/01/04 07:00:37;;;;;;;7.20;5.63;;;10.10;99.90;;;;;;5040750;28;20120;-73
2024/01/04 07:03:03;;;;;;;8.70;5.20;;;10.10;99.90;;;;;;5052088;28;20027;-72
2024/01/04 07:05:30;;;;;;;8.70;6.28;;;10.10;99.90;;;;;;5045765;28;20116;-72
2024/01/04 07:07:56;;;;;;;9.10;6.35;;;10.10;99.90;;;;;;5048680;28;20029;-73
2024/01/04 07:10:22;;;;;;;12.32;7.35;;;10.10;99.90;;;;;;5038025;28;20029;-72
2024/01/04 07:12:48;;;;;;;9.68;7.35;;;10.10;99.90;;;;;;5037031;28;20033;-72
2024/01/04 07:15:14;;;;;;;21.52;8.23;;;10.10;99.90;;;;;;5040137;28;20021;-72
2024/01/04 07:17:40;;;;;;;13.50;7.38;;;10.10;99.90;;;;;;5047390;28;20029;-72
2024/01/04 07:20:07;;;;;;;13.07;7.20;;;10.00;99.90;;;;;;5041403;28;20021;-72
2024/01/04 07:22:33;;;;;;;15.43;6.25;;;10.00;99.90;;;;;;5043351;28;20044;-72
2024/01/04 07:24:59;;;;;;;11.68;6.40;;;10.00;99.90;;;;;;5042534;28;20037;-73
2024/01/04 07:27:27;;;;;;;17.63;6.10;;;9.90;99.90;;;;;;5042427;28;20100;-73
2024/01/04 07:29:54;;;;;;;14.18;6.35;;;9.80;99.90;;;;;;5038112;28;20024;-72
2024/01/04 07:32:20;;;;;;;18.27;9.63;;;9.80;99.90;;;;;;5041326;28;20500;-72
2024/01/04 07:34:46;;;;;;;18.48;8.02;;;9.90;99.90;;;;;;5045630;28;20017;-72
2024/01/04 07:37:12;;;;;;;14.80;6.53;;;9.90;99.90;;;;;;5039723;28;20451;-73
2024/01/04 07:39:40;;;;;;;11.13;6.10;;;9.90;99.90;;;;;;5042486;28;20025;-73
2024/01/04 07:42:06;;;;;;;14.50;6.20;;;10.00;99.90;;;;;;5048549;28;20020;-74
2024/01/04 07:44:32;;;;;;;16.63;6.00;;;10.00;99.90;;;;;;5051608;28;20040;-73
2024/01/04 07:46:58;;;;;;;14.27;5.80;;;10.00;99.90;;;;;;5047975;28;20470;-75
2024/01/04 07:49:24;;;;;;;14.43;5.55;;;9.90;99.90;;;;;;5045118;28;20021;-75
2024/01/04 07:51:52;;;;;;;12.30;5.68;;;9.90;99.90;;;;;;5040160;28;20492;-75
2024/01/04 07:54:18;;;;;;;9.10;4.90;;;9.80;99.90;;;;;;5046048;28;20029;-74
2024/01/04 07:56:44;;;;;;;9.35;3.72;;;9.70;99.90;;;;;;5033984;28;20026;-74
2024/01/04 07:59:09;;;;;;;4.45;1.80;;;9.80;99.90;;;;;;5043819;28;20032;-74
2024/01/04 08:01:35;;;;;;;3.40;1.48;;;9.70;99.90;;;;;;5041861;28;20021;-74
2024/01/04 08:04:01;;;;;;;2.83;1.15;;;9.70;99.90;;;;;;5037478;28;20528;-73
2024/01/04 08:06:27;;;;;;;1.77;1.25;;;9.70;99.90;;;;;;5041632;28;20029;-74
2024/01/04 08:08:52;;;;;;;2.70;1.48;;;9.70;99.90;;;;;;5040187;28;20147;-74
2024/01/04 08:11:19;;;;;;;2.88;1.05;;;9.60;99.90;;;;;;5052786;28;20087;-75
2024/01/04 08:13:45;;;;;;;1.05;0.80;;;9.60;99.90;;;;;;5045498;28;20025;-73
2024/01/04 08:16:11;;;;;;;2.25;0.77;;;9.60;99.90;;;;;;5038240;28;20022;-73
2024/01/04 08:18:37;;;;;;;1.05;0.70;;;9.60;99.90;;;;;;5040230;28;20086;-73
2024/01/04 08:21:03;;;;;;;1.95;0.82;;;9.60;99.90;;;;;;5044053;28;20030;-73
2024/01/04 08:23:30;;;;;;;1.23;0.90;;;9.60;99.90;;;;;;5040994;28;20394;-73
2024/01/04 08:25:56;;;;;;;2.42;0.85;;;9.70;99.90;;;;;;5043883;28;20029;-73
2024/01/04 08:28:22;;;;;;;4.22;1.33;;;9.70;99.90;;;;;;5041104;28;20025;-74
2024/01/04 08:30:48;;;;;;;2.70;1.40;;;9.70;99.90;;;;;;5044408;28;20079;-73
2024/01/04 08:33:14;;;;;;;3.78;1.70;;;9.70;99.90;;;;;;5037446;28;20475;-73
2024/01/04 08:35:40;;;;;;;10.85;2.28;;;9.80;99.90;;;;;;5038890;28;20033;-73
2024/01/04 08:38:06;;;;;;;5.20;2.25;;;9.80;99.90;;;;;;5041875;28;20541;-73
2024/01/04 08:40:36;;;;;;;4.47;2.75;;;9.80;99.90;;;;;;5043832;28;20021;-73
2024/01/04 08:43:03;;;;;;;7.60;3.10;;;9.90;99.90;;;;;;5039916;28;20113;-73
2024/01/04 08:45:29;;;;;;;5.85;3.17;;;10.00;99.90;;;;;;5041527;28;20052;-73
2024/01/04 08:47:54;;;;;;;5.78;3.70;;;10.00;99.90;;;;;;5039899;28;20076;-73
2024/01/04 08:50:21;;;;;;;5.75;4.05;;;10.10;99.90;;;;;;5044805;28;20095;-73
2024/01/04 08:52:47;;;;;;;11.48;5.30;;;10.20;99.90;;;;;;5039405;28;20438;-73
2024/01/04 08:55:13;;;;;;;8.52;5.32;;;10.20;99.90;;;;;;5042943;28;20025;-73
2024/01/04 08:57:39;;;;;;;10.60;5.38;;;10.30;99.90;;;;;;5040622;28;20036;-73
2024/01/04 09:00:06;;;;;;;10.73;6.40;;;10.30;99.90;;;;;;5035973;28;20033;-73
2024/01/04 09:02:32;;;;;;;9.10;5.80;;;10.40;99.90;;;;;;5043914;28;20024;-74
2024/01/04 09:04:58;;;;;;;13.50;7.40;;;10.50;99.90;;;;;;5045811;28;20025;-79
2024/01/04 09:07:24;;;;;;;15.10;8.07;;;10.40;99.90;;;;;;5043670;28;20024;-73
2024/01/04 09:09:50;;;;;;;19.08;8.35;;;10.50;99.90;;;;;;5041799;28;20029;-73
2024/01/04 09:12:15;;;;;;;20.35;9.10;;;10.50;99.90;;;;;;5038481;28;20041;-73
2024/01/04 09:14:41;;;;;;;19.52;8.43;;;10.50;99.90;;;;;;5040873;28;20025;-72
2024/01/04 09:17:07;;;;;;;16.05;7.32;;;10.50;99.90;;;;;;5043015;28;20032;-74
2024/01/04 09:19:33;;;;;;;21.13;8.07;;;10.60;99.90;;;;;;5041902;28;20025;-73
2024/01/04 09:21:58;;;;;;;21.02;9.45;;;10.60;99.90;;;;;;5043695;28;20433;-74
2024/01/04 09:24:24;;;;;;;19.08;8.80;;;10.60;99.90;;;;;;5045660;28;20389;-73
2024/01/04 09:26:50;;;;;;;21.38;10.23;;;10.60;99.90;;;;;;5049179;28;20397;-73
2024/01/04 09:29:17;;;;;;;24.38;10.25;;;10.50;99.90;;;;;;5041905;28;20487;-73
2024/01/04 09:31:43;;;;;;;20.83;10.10;;;10.50;99.90;;;;;;5044534;28;20030;-73
2024/01/04 09:34:09;;;;;;;15.52;9.30;;;10.50;99.90;;;;;;5045053;28;20041;-73
2024/01/04 09:36:35;;;;;;;22.15;9.80;;;10.50;99.90;;;;;;5045300;28;20032;-73
2024/01/04 09:39:05;;;;;;;20.05;8.85;;;10.50;99.90;;;;;;5049811;28;20033;-73
2024/01/04 09:41:33;;;;;;;11.07;8.02;;;10.50;99.90;;;;;;5042983;28;20028;-73
2024/01/04 09:44:01;;;;;;;16.48;8.43;;;10.60;99.90;;;;;;5042201;28;20025;-73
2024/01/04 09:46:36;;;;;;;14.63;8.25;;;10.60;99.90;;;;;;5048756;28;20021;-73
2024/01/04 09:49:03;;;;;;;11.98;7.72;;;10.60;99.90;;;;;;5039608;28;20017;-73
2024/01/04 09:51:34;;;;;;;15.05;7.43;;;10.70;99.90;;;;;;5043027;28;20567;-73
2024/01/04 09:54:04;;;;;;;18.25;8.25;;;10.80;99.90;;;;;;5044632;28;20024;-73
2024/01/04 09:56:32;;;;;;;18.20;9.50;;;10.70;99.90;;;;;;5044770;28;20038;-73
2024/01/04 09:58:58;;;;;;;19.75;9.27;;;10.70;99.90;;;;;;5041954;28;20625;-72
2024/01/04 10:01:30;;;;;;;18.83;9.65;;;10.70;99.90;;;;;;5043553;28;20088;-73
2024/01/04 10:03:59;;;;;;;18.05;9.75;;;10.60;99.90;;;;;;5045360;28;20025;-72
2024/01/04 10:06:32;;;;;;;21.90;9.82;;;10.70;99.90;;;;;;5044366;28;20025;-72
2024/01/04 10:09:18;;;;;;;20.42;9.32;;;10.70;99.90;;;;;;5046612;28;20078;-72
2024/01/04 10:11:56;;;;;;;22.73;8.23;;;10.70;99.90;;;;;;5048996;28;20128;-72
2024/01/04 10:14:26;;;;;;;16.92;7.55;;;10.70;99.90;;;;;;5044190;28;20104;-72
2024/01/04 10:16:52;;;;;;;18.05;8.73;;;10.70;99.90;;;;;;5042639;28;20028;-73
2024/01/04 10:19:18;;;;;;;23.50;8.38;;;10.80;99.90;;;;;;5044789;28;20036;-73
2024/01/04 10:21:44;;;;;;;17.15;8.10;;;10.70;99.90;;;;;;5045540;28;20033;-73
2024/01/04 10:24:14;;;;;;;14.85;7.70;;;10.70;99.90;;;;;;5041240;28;20083;-73
2024/01/04 10:26:44;;;;;;;28.83;9.68;;;10.70;99.90;;;;;;5043223;28;20144;-72
2024/01/04 10:29:10;;;;;;;20.25;8.90;;;10.70;99.90;;;;;;5043714;28;20465;-73
2024/01/04 10:31:36;;;;;;;22.00;7.10;;;10.70;99.90;;;;;;5039536;28;20026;-72
2024/01/04 10:34:02;;;;;;;20.83;6.93;;;10.70;99.90;;;;;;5043765;28;20037;-72
2024/01/04 10:36:28;;;;;;;25.98;7.20;;;10.70;99.90;;;;;;5042374;28;20034;-72
2024/01/04 10:38:58;;;;;;;23.00;7.68;;;10.60;99.90;;;;;;5048212;28;20022;-73
2024/01/04 10:41:32;;;;;;;25.63;7.65;;;10.70;99.90;;;;;;5038121;28;20102;-72
2024/01/04 10:44:07;;;;;;;26.33;7.80;;;10.70;99.90;;;;;;5041795;28;20032;-72
2024/01/04 10:46:34;;;;;;;29.65;8.27;;;10.70;99.90;;;;;;5044246;28;20021;-73
2024/01/04 10:49:03;;;;;;;25.67;7.95;;;10.70;99.90;;;;;;5041692;28;20037;-72
2024/01/04 10:51:33;;;;;;;21.92;7.72;;;10.70;99.90;;;;;;5038634;28;20482;-72
2024/01/04 10:54:00;;;;;;;26.45;8.05;;;10.90;99.90;;;;;;5042120;28;20040;-72
2024/01/04 10:56:29;;;;;;;21.63;7.70;;;10.90;99.90;;;;;;5044420;28;20034;-72
2024/01/04 10:58:56;;;;;;;22.60;7.68;;;10.90;99.90;;;;;;5040186;28;20106;-72
2024/01/04 11:01:22;;;;;;;21.58;7.35;;;10.90;99.90;;;;;;5048722;28;20143;-73
2024/01/04 11:03:49;;;;;;;24.70;7.85;;;11.00;99.90;;;;;;5046853;28;20032;-73
2024/01/04 11:06:15;;;;;;;30.90;8.18;;;11.00;99.90;;;;;;5040535;28;20025;-72
2024/01/04 11:08:41;;;;;;;30.55;7.88;;;10.90;99.90;;;;;;5046033;28;20028;-72
2024/01/04 11:11:10;;;;;;;27.27;7.30;;;10.90;99.90;;;;;;5040601;28;20037;-72
2024/01/04 11:13:36;;;;;;;26.65;8.27;;;10.90;99.90;;;;;;5042378;28;20492;-72
2024/01/04 11:16:25;;;;;;;30.50;8.38;;;10.90;99.90;;;;;;5042525;28;20029;-72
2024/01/04 11:19:13;;;;;;;27.55;7.70;;;10.90;99.90;;;;;;5046656;28;20108;-72
2024/01/04 11:21:50;;;;;;;25.00;7.10;;;10.90;99.90;;;;;;5041765;28;20305;-72
2024/01/04 11:24:49;;;;;;;30.08;6.55;;;10.90;99.90;;;;;;5047227;28;20497;-72
2024/01/04 11:27:17;;;;;;;23.88;6.18;;;10.80;99.90;;;;;;5040799;28;20042;-72
2024/01/04 11:29:44;;;;;;;24.60;5.93;;;10.80;99.90;;;;;;5042147;28;20029;-72
2024/01/04 11:32:10;;;;;;;21.52;6.40;;;10.80;99.90;;;;;;5046905;28;20036;-72
2024/01/04 11:34:39;;;;;;;24.95;7.10;;;10.80;99.90;;;;;;5042360;28;20394;-72
2024/01/04 11:37:16;;;;;;;22.23;6.93;;;10.90;99.90;;;;;;5040205;28;20474;-73
2024/01/04 11:40:03;;;;;;;22.95;7.70;;;10.80;99.90;;;;;;5041690;28;20025;-73
2024/01/04 11:42:37;;;;;;;29.80;8.20;;;10.80;99.90;;;;;;5040315;28;20025;-72
2024/01/04 11:45:04;;;;;;;27.42;8.88;;;10.80;99.90;;;;;;5043092;28;20029;-73
2024/01/04 11:47:43;;;;;;;24.58;9.35;;;10.80;99.90;;;;;;5038960;28;20116;-73
2024/01/04 11:50:30;;;;;;;33.58;9.98;;;10.80;99.90;;;;;;5047242;28;20052;-72
2024/01/04 11:53:08;;;;;;;29.83;8.65;;;10.80;99.90;;;;;;5044254;28;20029;-72
2024/01/04 11:55:36;;;;;;;29.45;10.18;;;10.80;99.90;;;;;;5042057;28;20017;-72
2024/01/04 11:58:07;;;;;;;31.23;10.68;;;10.90;99.90;;;;;;5042885;28;20041;-72
2024/01/04 12:00:34;;;;;;;32.03;9.70;;;10.90;99.90;;;;;;5043076;28;20020;-72
2024/01/04 12:03:14;;;;;;;33.60;12.15;;;11.10;99.90;;;;;;5040679;28;20033;-72
2024/01/04 12:05:47;;;;;;;31.95;10.63;;;11.00;99.90;;;;;;5045454;28;20024;-72
2024/01/04 12:08:33;;;;;;;38.42;11.05;;;11.00;99.90;;;;;;5040712;28;20046;-73
2024/01/04 12:11:04;;;;;;;36.58;11.25;;;10.90;99.90;;;;;;5040282;28;20564;-72
2024/01/04 12:13:30;;;;;;;30.55;9.55;;;11.00;99.90;;;;;;5042080;28;20025;-73
2024/01/04 12:15:56;;;;;;;33.60;9.25;;;10.90;99.90;;;;;;5037314;28;20030;-73
2024/01/04 12:18:22;;;;;;;31.30;9.65;;;10.90;99.90;;;;;;5039242;28;20064;-72
2024/01/04 12:20:48;;;;;;;37.08;8.98;;;10.90;99.90;;;;;;5015784;28;20103;-72
2024/01/04 12:23:15;;;;;;;38.70;9.88;;;10.90;99.90;;;;;;5036500;28;20068;-73
2024/01/04 12:25:41;;;;;;;27.70;8.68;;;10.90;99.90;;;;;;5036592;28;20025;-72
2024/01/04 12:28:08;;;;;;;34.65;9.00;;;10.90;99.90;;;;;;5037024;28;20458;-72
2024/01/04 12:30:37;;;;;;;29.55;8.60;;;10.90;99.90;;;;;;5034679;28;20025;-72
2024/01/04 12:33:03;;;;;;;27.58;8.43;;;11.00;99.90;;;;;;5029749;28;20037;-72
2024/01/04 12:35:29;;;;;;;31.02;9.35;;;11.00;99.90;;;;;;5032589;28;20037;-73
2024/01/04 12:38:03;;;;;;;26.60;8.68;;;11.10;99.90;;;;;;5031813;28;20376;-72
2024/01/04 12:40:40;;;;;;;27.90;8.70;;;11.10;99.90;;;;;;5033772;28;20033;-72